Time;durP1;ratioP1;P1;durP2;ratioP2;P2;SDS_P1;SDS_P2;PMS_P1;PMS_P2;Temp;Humidity;BMP_temperature;BMP_pressure;BME280_temperature;BME280_humidity;BME280_pressure;Samples;Min_cycle;Max_cycle;Signal;HPM_P1;HPM_P2
2021/06/06 00:02:11;;;;;;;112.70;55.58;;;15.90;99.90;;;17.12;98.27;101223.63;4956046;29;20043;-81
2021/06/06 00:04:43;;;;;;;107.65;55.78;;;15.80;99.90;;;17.14;98.20;101226.06;4955514;29;20094;-81
2021/06/06 00:07:13;;;;;;;116.43;56.58;;;15.80;99.90;;;17.05;98.39;101222.75;4956081;28;20062;-82
2021/06/06 00:09:39;;;;;;;112.47;54.03;;;15.70;99.90;;;17.06;98.42;101219.53;4956175;29;20034;-80
2021/06/06 00:12:08;;;;;;;103.82;53.92;;;15.70;99.90;;;17.05;98.13;101226.38;4958846;28;20024;-80
2021/06/06 00:14:39;;;;;;;109.55;53.83;;;15.70;99.90;;;17.00;98.26;101225.91;4957961;28;20099;-82
2021/06/06 00:17:11;;;;;;;104.28;51.53;;;15.70;99.90;;;17.02;98.39;101226.31;4958035;28;20031;-81
2021/06/06 00:19:38;;;;;;;108.70;52.50;;;15.70;99.90;;;17.05;98.65;101234.03;4956250;29;20491;-81
2021/06/06 00:22:07;;;;;;;110.85;55.30;;;15.70;99.90;;;17.04;98.28;101227.59;4955537;29;20205;-80
2021/06/06 00:24:37;;;;;;;110.32;54.03;;;15.70;99.90;;;17.04;98.29;101227.59;4953300;29;20023;-81
2021/06/06 00:27:06;;;;;;;111.47;56.28;;;15.70;99.90;;;17.01;98.22;101230.38;4955612;29;20031;-80
2021/06/06 00:29:33;;;;;;;115.60;57.38;;;15.70;99.90;;;17.04;98.52;101233.22;4956106;29;20395;-81
2021/06/06 00:31:58;;;;;;;108.85;52.50;;;15.70;99.90;;;17.04;97.91;101232.41;4957049;28;20082;-82
2021/06/06 00:34:26;;;;;;;106.38;53.47;;;15.60;99.90;;;16.98;98.00;101236.78;4957388;29;20065;-82
2021/06/06 00:36:54;;;;;;;103.85;52.75;;;15.60;99.90;;;17.03;97.88;101233.59;4954355;29;20448;-82
2021/06/06 00:39:20;;;;;;;111.72;55.90;;;15.60;99.90;;;16.96;98.75;101237.16;4956753;29;20081;-81
2021/06/06 00:41:50;;;;;;;97.90;51.50;;;15.60;99.90;;;16.86;99.24;101244.31;4957047;29;20042;-81
2021/06/06 00:44:19;;;;;;;98.40;51.08;;;15.60;99.90;;;16.85;98.92;101236.25;4958886;28;20510;-80
2021/06/06 00:46:46;;;;;;;102.55;51.53;;;15.60;99.90;;;16.90;99.50;101237.91;4957100;29;20035;-80
2021/06/06 00:49:12;;;;;;;103.18;50.75;;;15.50;99.90;;;16.88;99.46;101246.75;4956505;29;20466;-82
2021/06/06 00:52:15;;;;;;;107.05;51.15;;;15.50;99.90;;;16.82;99.81;101237.81;4954564;29;20035;-82
2021/06/06 00:54:46;;;;;;;94.95;48.88;;;15.50;99.90;;;16.78;99.59;101242.63;4954455;29;20046;-82
2021/06/06 00:57:24;;;;;;;96.68;49.03;;;15.50;99.90;;;16.70;99.86;101252.19;4956813;28;20046;-82
2021/06/06 01:00:28;;;;;;;84.57;44.08;;;15.40;99.90;;;16.66;99.90;101247.72;4956519;28;20045;-81
2021/06/06 01:02:56;;;;;;;84.05;42.42;;;15.40;99.90;;;16.56;99.72;101249.22;4962407;28;20035;-84
2021/06/06 01:06:03;;;;;;;71.18;41.00;;;15.30;99.90;;;16.51;99.97;101252.34;4962510;28;20023;-82
2021/06/06 01:08:33;;;;;;;75.88;40.80;;;15.30;99.90;;;16.55;99.65;101258.06;4927287;29;20402;-82
2021/06/06 01:11:33;;;;;;;81.47;42.47;;;15.20;99.90;;;16.55;99.64;101252.41;4958336;29;20089;-82
2021/06/06 01:14:14;;;;;;;67.32;38.13;;;15.20;99.90;;;16.45;100.00;101255.88;4958764;29;20071;-80
2021/06/06 01:17:15;;;;;;;64.78;37.65;;;15.20;99.90;;;16.42;99.55;101260.28;4959610;28;20035;-82
2021/06/06 01:20:06;;;;;;;66.38;39.17;;;15.10;99.90;;;16.43;99.85;101247.00;4960865;28;20031;-80
2021/06/06 01:22:58;;;;;;;66.65;39.13;;;15.10;99.90;;;16.41;99.51;101250.19;4958540;29;20122;-82
2021/06/06 01:25:28;;;;;;;73.95;40.30;;;15.10;99.90;;;16.35;100.00;101246.09;4960137;28;20034;-83
2021/06/06 01:28:09;;;;;;;71.90;40.33;;;15.10;99.90;;;16.30;100.00;101237.97;4965602;28;20046;-82
2021/06/06 01:30:45;;;;;;;73.65;40.95;;;15.00;99.90;;;16.20;100.00;101249.91;4966399;28;20027;-80
2021/06/06 01:33:47;;;;;;;74.90;40.72;;;15.00;99.90;;;16.20;100.00;101247.91;4958602;29;20046;-81
2021/06/06 01:36:22;;;;;;;80.00;42.05;;;14.90;99.90;;;16.21;100.00;101243.88;4958591;28;20030;-81
2021/06/06 01:38:57;;;;;;;80.45;41.13;;;14.90;99.90;;;16.21;100.00;101241.06;4958948;28;20035;-81
2021/06/06 01:41:35;;;;;;;77.25;41.72;;;14.90;99.90;;;16.25;100.00;101244.75;4956996;29;20027;-82
2021/06/06 01:44:10;;;;;;;76.40;41.03;;;14.90;99.90;;;16.21;99.90;101243.88;4956639;29;20447;-80
2021/06/06 01:46:57;;;;;;;77.55;42.03;;;14.90;99.90;;;16.20;99.98;101244.28;4958599;28;20043;-83
2021/06/06 01:49:26;;;;;;;71.07;39.92;;;14.90;99.90;;;16.17;99.72;101248.69;4956029;29;20031;-81
2021/06/06 01:52:01;;;;;;;77.38;41.97;;;14.90;99.90;;;16.14;99.72;101249.44;4949860;29;20030;-81
2021/06/06 01:54:37;;;;;;;86.50;42.75;;;14.80;99.90;;;16.12;99.46;101256.63;4951900;29;20023;-81
2021/06/06 01:57:12;;;;;;;78.00;40.72;;;14.80;99.90;;;16.11;99.70;101250.22;4957305;28;20027;-82
2021/06/06 01:59:48;;;;;;;79.75;42.88;;;14.80;99.90;;;16.11;99.32;101257.84;4958066;28;20036;-78
2021/06/06 02:02:15;;;;;;;76.32;39.15;;;14.80;99.90;;;16.13;99.49;101261.91;4957348;28;20431;-80
2021/06/06 02:04:42;;;;;;;76.93;39.42;;;14.80;99.90;;;16.07;99.31;101246.53;4949779;29;20123;-82
2021/06/06 02:07:28;;;;;;;70.82;37.17;;;14.80;99.90;;;16.06;99.23;101255.34;4958170;28;20443;-83
2021/06/06 02:10:23;;;;;;;68.97;37.80;;;14.70;99.90;;;16.02;99.48;101255.28;4958198;28;20038;-81
2021/06/06 02:13:07;;;;;;;66.65;34.15;;;14.70;99.90;;;16.00;98.59;101252.06;4958118;28;20032;-83
2021/06/06 02:15:37;;;;;;;61.25;33.85;;;14.70;99.90;;;16.01;98.43;101252.88;4957116;29;20499;-82
2021/06/06 02:18:07;;;;;;;57.33;32.92;;;14.70;99.90;;;15.99;97.89;101250.41;4956591;28;20031;-81
2021/06/06 02:20:48;;;;;;;62.83;33.15;;;14.70;99.90;;;15.91;97.95;101247.88;4959230;28;20035;-81
2021/06/06 02:23:23;;;;;;;50.08;29.77;;;14.70;99.90;;;15.95;97.93;101249.56;4921167;29;20373;-81
2021/06/06 02:26:42;;;;;;;57.67;32.07;;;14.60;99.90;;;15.94;97.78;101256.38;4920599;29;20107;-80
2021/06/06 02:29:50;;;;;;;54.83;30.25;;;14.60;99.90;;;15.96;97.22;101253.22;4914994;29;20130;-82
2021/06/06 02:32:37;;;;;;;51.08;28.77;;;14.60;99.90;;;15.96;96.95;101256.03;4917807;29;20490;-80
2021/06/06 02:35:23;;;;;;;52.03;29.25;;;14.60;99.90;;;15.95;97.10;101257.22;4917313;29;20123;-81
2021/06/06 02:38:15;;;;;;;49.80;29.63;;;14.60;99.90;;;15.97;97.06;101252.00;4952752;29;20043;-80
2021/06/06 02:41:00;;;;;;;51.47;30.17;;;14.60;99.90;;;15.95;97.39;101254.41;4949188;29;20042;-79
2021/06/06 02:43:38;;;;;;;52.47;31.20;;;14.60;99.90;;;15.93;96.96;101251.94;4956272;28;20285;-80
2021/06/06 02:46:52;;;;;;;48.63;27.77;;;14.60;99.90;;;15.95;96.82;101246.75;4957874;29;20034;-81
2021/06/06 02:49:28;;;;;;;48.63;30.02;;;14.60;99.90;;;15.93;96.91;101256.75;4957961;29;20427;-84
2021/06/06 02:52:02;;;;;;;;;;;14.70;99.90;;;15.93;96.24;101259.56;4960305;28;20046;-81
2021/06/06 02:54:41;;;;;;;49.63;27.27;;;14.60;99.90;;;15.91;96.68;101245.88;4958460;29;20005;-85
2021/06/06 02:57:13;;;;;;;49.10;28.52;;;14.60;99.90;;;15.94;96.58;101249.94;4959925;28;20023;-82
2021/06/06 03:00:14;;;;;;;49.75;29.58;;;14.60;99.90;;;15.92;97.13;101250.34;4959618;28;20129;-84
2021/06/06 03:02:51;;;;;;;48.05;28.38;;;14.60;99.90;;;15.88;96.67;101252.28;4956986;28;20027;-82
2021/06/06 03:05:25;;;;;;;53.67;29.70;;;14.60;99.90;;;15.91;96.80;101253.53;4960488;28;20097;-81
2021/06/06 03:07:59;;;;;;;52.22;29.38;;;14.60;99.90;;;15.90;97.33;101251.88;4960576;28;20095;-84
2021/06/06 03:10:30;;;;;;;50.72;29.40;;;14.60;99.90;;;15.86;97.02;101257.47;4960142;28;20062;-82
2021/06/06 03:13:11;;;;;;;50.85;29.15;;;14.60;99.90;;;15.81;97.63;101252.97;4957774;29;20063;-84
2021/06/06 03:15:46;;;;;;;50.47;29.27;;;14.50;99.90;;;15.80;97.61;101256.97;4960831;28;20028;-85
2021/06/06 03:18:16;;;;;;;46.53;27.60;;;14.50;99.90;;;15.80;96.76;101256.97;4961079;28;20023;-82
2021/06/06 03:20:50;;;;;;;42.88;26.10;;;14.50;99.90;;;15.78;96.71;101262.19;4961721;28;20038;-83
2021/06/06 03:23:26;;;;;;;43.20;26.92;;;14.50;99.90;;;15.73;96.63;101258.91;4958885;28;20038;-85
2021/06/06 03:26:05;;;;;;;40.45;25.00;;;14.40;99.90;;;15.75;96.63;101262.13;4962070;28;20412;-83
2021/06/06 03:28:39;;;;;;;36.75;23.85;;;14.40;99.90;;;15.77;96.61;101260.56;4961918;28;20035;-81
2021/06/06 03:31:30;;;;;;;38.28;23.40;;;14.40;99.90;;;15.79;96.21;101266.66;4962635;28;20371;-83
2021/06/06 03:34:04;;;;;;;39.42;25.05;;;14.40;99.90;;;15.76;96.61;101266.59;4962888;28;20023;-85
2021/06/06 03:36:40;;;;;;;41.33;25.23;;;14.50;99.90;;;15.76;96.43;101266.59;4963672;28;20062;-86
2021/06/06 03:39:14;;;;;;;36.63;23.90;;;14.50;99.90;;;15.79;96.44;101272.28;4962968;28;20062;-84
2021/06/06 03:41:42;;;;;;;37.13;23.73;;;14.50;99.90;;;15.80;96.64;101265.44;4961526;29;20463;-84
2021/06/06 03:44:09;;;;;;;36.35;24.70;;;14.50;99.90;;;15.77;96.76;101268.19;4962897;28;20031;-85
2021/06/06 03:46:37;;;;;;;33.35;22.88;;;14.50;99.90;;;15.80;95.97;101259.81;4965015;28;20050;-83
2021/06/06 03:49:07;;;;;;;39.10;22.95;;;14.50;99.90;;;15.78;95.51;101255.75;4958893;29;20115;-81
2021/06/06 03:51:34;;;;;;;40.63;22.75;;;14.40;99.90;;;15.74;96.30;101258.50;4956695;28;20023;-80
2021/06/06 03:54:00;;;;;;;46.42;24.17;;;14.50;99.90;;;15.69;96.40;101266.47;4955287;29;20377;-81
2021/06/06 03:56:26;;;;;;;44.67;26.30;;;14.40;99.90;;;15.74;96.39;101261.31;4956678;29;20102;-81
2021/06/06 03:58:53;;;;;;;44.58;25.65;;;14.40;99.90;;;15.75;96.16;101259.31;4953665;29;20031;-82
2021/06/06 04:01:19;;;;;;;47.40;26.95;;;14.40;99.90;;;15.76;96.56;101258.13;4954469;29;20059;-82
2021/06/06 04:03:46;;;;;;;48.83;29.48;;;14.50;99.90;;;15.78;96.76;101255.75;4938065;29;20110;-81
2021/06/06 04:06:12;;;;;;;52.45;30.35;;;14.50;99.90;;;15.80;96.79;101258.97;4939671;29;20372;-80
2021/06/06 04:08:39;;;;;;;57.67;33.15;;;14.50;99.90;;;15.78;96.59;101262.19;4939933;29;20031;-84
2021/06/06 04:11:05;;;;;;;52.22;29.75;;;14.50;99.90;;;15.80;97.01;101265.44;4955930;29;20030;-86
2021/06/06 04:13:32;;;;;;;56.75;32.03;;;14.50;99.90;;;15.78;97.32;101264.19;4957760;29;20073;-83
2021/06/06 04:15:59;;;;;;;64.85;33.13;;;14.50;99.90;;;15.77;96.93;101265.38;4959802;28;20046;-81
2021/06/06 04:18:31;;;;;;;61.50;37.47;;;14.40;99.90;;;15.75;97.40;101262.13;4958963;28;20037;-85
2021/06/06 04:21:12;;;;;;;66.28;36.00;;;14.50;99.90;;;15.75;97.29;101256.50;4959313;28;20024;-81
2021/06/06 04:23:39;;;;;;;64.53;38.63;;;14.40;99.90;;;15.69;97.20;101255.19;4958528;29;20503;-83
2021/06/06 04:26:06;;;;;;;72.43;40.53;;;14.40;99.90;;;15.69;97.56;101253.19;4959325;28;20360;-84
2021/06/06 04:28:34;;;;;;;74.20;41.55;;;14.40;99.90;;;15.67;97.35;101255.56;4958147;29;20468;-84
2021/06/06 04:31:01;;;;;;;69.22;39.67;;;14.40;99.90;;;15.72;97.46;101249.63;4959509;28;20028;-83
2021/06/06 04:33:27;;;;;;;67.78;40.38;;;14.40;99.90;;;15.72;97.46;101249.63;4959434;28;20046;-82
2021/06/06 04:35:54;;;;;;;68.03;40.72;;;14.40;99.90;;;15.71;97.99;101256.44;4959812;29;20031;-84
2021/06/06 04:38:28;;;;;;;69.78;40.20;;;14.40;99.90;;;15.73;97.81;101253.25;4959451;28;20118;-82
2021/06/06 04:41:00;;;;;;;62.65;36.10;;;14.50;99.90;;;15.73;97.66;101256.88;4960278;28;20031;-84
2021/06/06 04:43:27;;;;;;;60.35;34.42;;;14.40;99.90;;;15.79;97.22;101258.19;4965440;28;20113;-84
2021/06/06 04:45:55;;;;;;;48.38;31.15;;;14.40;99.90;;;15.78;96.29;101255.75;4965805;28;20042;-80
2021/06/06 04:48:40;;;;;;;44.03;28.55;;;14.50;99.90;;;15.78;96.48;101261.38;4965665;28;20042;-80
2021/06/06 04:51:19;;;;;;;47.67;28.42;;;14.40;99.90;;;15.80;96.39;101258.97;4957370;29;20027;-87
2021/06/06 04:53:50;;;;;;;47.83;28.85;;;14.40;99.90;;;15.86;95.94;101256.69;4959430;28;20023;-83
2021/06/06 04:56:20;;;;;;;46.05;28.42;;;14.50;99.90;;;15.81;96.10;101255.81;4958701;29;20086;-86
2021/06/06 04:58:48;;;;;;;42.42;26.10;;;14.50;99.90;;;15.86;95.98;101251.81;4960089;28;20050;-82
2021/06/06 05:01:15;;;;;;;47.78;28.92;;;14.50;99.90;;;15.88;96.10;101255.09;4954720;29;20031;-83
2021/06/06 05:03:42;;;;;;;34.13;23.55;;;14.50;99.90;;;15.90;96.03;101257.50;4956450;28;20059;-82
2021/06/06 05:06:09;;;;;;;42.42;25.48;;;14.50;99.90;;;15.92;95.91;101258.78;4954454;28;20027;-83
2021/06/06 05:08:35;;;;;;;33.13;23.08;;;14.50;99.90;;;15.93;95.96;101257.56;4943820;28;20031;-82
2021/06/06 05:11:01;;;;;;;37.08;26.45;;;14.50;99.90;;;15.96;95.60;101259.63;4940498;29;20024;-82
2021/06/06 05:13:27;;;;;;;35.25;23.85;;;14.60;99.90;;;15.98;95.20;101262.09;4951599;29;20134;-81
2021/06/06 05:15:55;;;;;;;36.38;24.17;;;14.60;99.90;;;15.97;95.57;101264.09;4935075;29;20091;-80
2021/06/06 05:18:23;;;;;;;33.90;24.02;;;14.70;99.90;;;15.99;95.25;101272.97;4935595;29;20484;-81
2021/06/06 05:20:54;;;;;;;37.88;22.63;;;14.70;99.90;;;16.03;95.09;101265.38;4935397;29;20031;-81
2021/06/06 05:23:25;;;;;;;35.10;23.00;;;14.60;99.90;;;16.03;94.88;101267.38;4946025;29;20027;-81
2021/06/06 05:25:52;;;;;;;33.17;23.60;;;14.60;99.90;;;16.02;94.91;101262.97;4952774;29;20035;-82
2021/06/06 05:28:26;;;;;;;38.40;25.10;;;14.70;99.90;;;16.00;95.29;101268.13;4955528;28;20476;-82
2021/06/06 05:30:54;;;;;;;43.85;27.35;;;14.70;99.90;;;16.04;95.23;101260.56;4955572;29;20424;-82
2021/06/06 05:33:22;;;;;;;39.85;26.30;;;14.70;99.90;;;16.01;95.28;101275.41;4955765;29;20127;-82
2021/06/06 05:35:49;;;;;;;41.83;28.08;;;14.60;99.90;;;16.01;95.23;101269.78;4957792;28;20067;-80
2021/06/06 05:38:25;;;;;;;43.97;27.50;;;14.70;99.90;;;16.00;94.86;101277.41;4952969;29;20085;-81
2021/06/06 05:40:52;;;;;;;47.15;29.67;;;14.70;99.90;;;16.04;94.78;101283.09;4953411;29;20027;-80
2021/06/06 05:43:18;;;;;;;43.85;27.75;;;14.70;99.90;;;16.03;95.26;101270.19;4954262;28;20110;-83
2021/06/06 05:45:48;;;;;;;48.55;29.45;;;14.60;99.90;;;16.05;95.18;101279.09;4952936;28;20195;-82
2021/06/06 05:48:15;;;;;;;42.85;28.10;;;14.70;99.90;;;16.08;95.23;101281.97;4954792;29;20031;-81
2021/06/06 05:50:47;;;;;;;49.13;31.30;;;14.70;99.90;;;16.11;95.63;101284.03;4962615;28;20046;-85
2021/06/06 05:53:14;;;;;;;50.28;30.85;;;14.80;99.90;;;16.16;95.14;101294.13;4961763;28;20106;-84
2021/06/06 05:55:43;;;;;;;43.40;28.77;;;14.70;99.90;;;16.21;95.35;101297.44;4962323;28;20043;-84
2021/06/06 05:58:09;;;;;;;46.30;29.08;;;14.80;99.90;;;16.28;95.61;101291.91;4959477;28;20030;-81
2021/06/06 06:00:42;;;;;;;42.05;28.50;;;14.90;99.90;;;16.40;95.22;101290.06;4958295;29;20039;-82
2021/06/06 06:03:09;;;;;;;48.65;29.20;;;14.90;99.90;;;16.51;94.92;101291.81;4959314;28;20030;-82
2021/06/06 06:05:37;;;;;;;40.70;25.00;;;15.00;99.90;;;16.55;93.63;101291.91;4964465;28;20355;-86
2021/06/06 06:08:21;;;;;;;37.10;23.42;;;15.10;99.90;;;16.57;93.12;101295.94;4962297;28;20082;-82
2021/06/06 06:10:50;;;;;;;39.92;24.17;;;15.10;99.90;;;16.61;92.69;101290.34;4961627;29;20145;-84
2021/06/06 06:13:20;;;;;;;31.05;21.52;;;15.20;99.90;;;16.65;92.55;101289.22;4955773;28;20027;-83
2021/06/06 06:15:47;;;;;;;32.83;21.85;;;15.20;99.90;;;16.74;92.45;101297.38;4940652;29;20042;-82
2021/06/06 06:18:15;;;;;;;31.88;20.52;;;15.30;99.90;;;16.83;92.60;101290.22;4961563;29;20467;-84
2021/06/06 06:20:42;;;;;;;36.75;23.35;;;15.40;99.90;;;16.89;91.89;101289.91;4960057;28;20071;-83
2021/06/06 06:23:08;;;;;;;40.03;23.75;;;15.40;99.90;;;16.90;91.75;101288.69;4959645;29;20074;-81
2021/06/06 06:25:35;;;;;;;46.40;26.05;;;15.40;99.90;;;16.93;91.45;101285.91;4960181;28;20217;-85
2021/06/06 06:28:01;;;;;;;48.70;31.85;;;15.40;99.90;;;16.88;90.29;101289.09;4958382;28;20110;-84
2021/06/06 06:30:34;;;;;;;48.53;30.17;;;15.40;99.90;;;16.81;90.57;101295.47;4960232;29;20063;-84
2021/06/06 06:33:01;;;;;;;47.70;27.77;;;15.40;99.90;;;16.81;90.72;101289.81;4958515;29;20038;-84
2021/06/06 06:35:28;;;;;;;51.58;29.33;;;15.40;99.90;;;16.80;90.84;101296.66;4958027;29;20039;-84
2021/06/06 06:37:56;;;;;;;47.85;30.00;;;15.40;99.90;;;16.81;90.76;101297.47;4959906;28;20055;-83
2021/06/06 06:40:24;;;;;;;45.28;29.10;;;15.40;99.90;;;16.84;90.76;101300.34;4959585;28;20031;-80
2021/06/06 06:42:50;;;;;;;53.47;31.00;;;15.40;99.90;;;16.84;90.87;101293.88;4959317;28;20027;-83
2021/06/06 06:45:24;;;;;;;47.33;29.23;;;15.40;99.90;;;16.86;91.03;101300.75;4960166;28;20487;-81
2021/06/06 06:47:51;;;;;;;54.15;32.40;;;15.40;99.90;;;16.90;90.56;101297.16;4948192;29;20035;-81
2021/06/06 06:50:20;;;;;;;47.15;30.25;;;15.50;99.90;;;16.89;90.76;101299.16;4940348;29;20063;-83
2021/06/06 06:52:47;;;;;;;57.70;32.45;;;15.40;99.90;;;16.93;90.25;101296.38;4941142;29;20088;-79
2021/06/06 06:55:19;;;;;;;56.70;33.10;;;15.50;99.90;;;17.00;90.11;101297.28;4940989;29;20055;-81
2021/06/06 06:57:46;;;;;;;59.92;34.00;;;15.50;99.90;;;17.05;90.06;101298.97;4939704;29;20440;-83
2021/06/06 07:00:24;;;;;;;56.50;32.55;;;15.60;99.90;;;17.06;89.93;101298.56;4940124;29;20039;-84
2021/06/06 07:02:50;;;;;;;55.63;32.95;;;15.60;99.90;;;17.11;89.73;101301.03;4938709;29;20043;-82
2021/06/06 07:05:16;;;;;;;59.05;36.00;;;15.60;99.90;;;17.15;89.25;101299.06;4938537;29;20103;-82
2021/06/06 07:07:43;;;;;;;53.58;33.53;;;15.70;99.90;;;17.22;88.88;101293.47;4936623;29;20036;-81
2021/06/06 07:10:18;;;;;;;56.78;34.72;;;15.70;99.90;;;17.30;88.87;101300.84;4949007;29;20027;-81
2021/06/06 07:12:44;;;;;;;62.17;35.63;;;15.80;99.90;;;17.18;87.92;101300.28;4958180;29;20045;-84
2021/06/06 07:15:14;;;;;;;58.78;35.05;;;15.80;99.90;;;17.21;88.17;101305.97;4959891;29;20039;-82
2021/06/06 07:17:41;;;;;;;63.00;35.25;;;15.80;99.90;;;17.25;87.98;101306.00;4961591;28;20074;-85
2021/06/06 07:20:14;;;;;;;55.78;32.72;;;15.80;99.90;;;17.32;88.32;101304.06;4959119;28;20042;-82
2021/06/06 07:22:41;;;;;;;64.18;36.53;;;15.80;99.90;;;17.34;87.82;101304.50;4961143;28;20030;-83
2021/06/06 07:25:12;;;;;;;57.78;32.97;;;15.90;99.90;;;17.42;87.37;101311.03;4960226;28;20036;-82
2021/06/06 07:27:43;;;;;;;54.80;32.60;;;15.90;99.90;;;17.42;87.19;101310.22;4952897;28;20027;-82
2021/06/06 07:30:22;;;;;;;55.60;32.75;;;15.90;99.90;;;17.39;87.37;101306.97;4941546;29;20032;-82
2021/06/06 07:32:49;;;;;;;49.05;32.00;;;16.00;99.90;;;17.52;86.37;101313.16;4957689;29;20435;-82
2021/06/06 07:35:30;;;;;;;56.80;33.08;;;16.00;99.90;;;17.56;86.29;101307.56;4958818;29;20500;-82
2021/06/06 07:37:58;;;;;;;58.65;32.13;;;16.10;99.90;;;17.64;85.69;101304.41;4960219;29;20116;-84
2021/06/06 07:40:30;;;;;;;52.88;32.28;;;16.20;99.90;;;17.73;85.69;101309.72;4960936;28;20094;-84
2021/06/06 07:42:56;;;;;;;54.28;32.40;;;16.20;99.90;;;17.79;85.21;101310.97;4960329;28;20059;-83
2021/06/06 07:45:24;;;;;;;65.85;34.70;;;16.30;99.90;;;17.92;85.04;101298.16;4959915;28;20050;-83
2021/06/06 07:47:50;;;;;;;56.47;30.58;;;16.30;99.90;;;18.10;84.51;101307.59;4958555;29;20032;-82
2021/06/06 07:50:25;;;;;;;55.15;30.98;;;16.50;99.90;;;18.23;84.04;101310.91;4961421;28;20075;-83
2021/06/06 07:52:52;;;;;;;54.85;30.83;;;16.60;99.90;;;18.20;82.00;101306.03;4959926;28;20158;-85
2021/06/06 07:55:23;;;;;;;50.35;31.17;;;16.70;99.90;;;18.24;82.76;101304.84;4959079;28;20129;-81
2021/06/06 07:57:49;;;;;;;55.75;30.95;;;16.70;99.90;;;18.23;82.40;101313.72;4945458;28;20028;-81
2021/06/06 08:00:30;;;;;;;46.33;29.75;;;16.70;99.90;;;18.14;82.49;101314.06;4939752;29;20131;-86
2021/06/06 08:02:56;;;;;;;49.70;30.17;;;16.60;99.90;;;18.13;82.64;101308.81;4942329;29;20087;-82
2021/06/06 08:05:23;;;;;;;45.53;30.08;;;16.60;99.90;;;18.15;82.56;101306.41;4937505;29;20400;-80
2021/06/06 08:07:51;;;;;;;46.50;29.35;;;16.60;99.90;;;18.05;82.76;101305.13;4937891;29;20084;-82
2021/06/06 08:10:23;;;;;;;45.03;29.58;;;16.60;99.90;;;18.00;83.32;101304.69;4950865;29;20050;-86
2021/06/06 08:12:50;;;;;;;53.17;33.33;;;16.60;99.90;;;17.92;83.55;101303.03;4960302;29;20033;-87
2021/06/06 08:15:18;;;;;;;47.10;30.80;;;16.50;99.90;;;17.93;83.87;101311.09;4959791;29;20539;-86
2021/06/06 08:17:44;;;;;;;52.83;35.17;;;16.50;99.90;;;17.88;83.81;101305.81;4960779;29;20157;-87
2021/06/06 08:20:24;;;;;;;51.20;32.58;;;16.50;99.90;;;17.94;84.36;101307.06;4960991;29;20581;-81
2021/06/06 08:22:51;;;;;;;60.38;35.70;;;16.50;99.90;;;18.00;83.95;101307.50;4961458;28;20027;-86
2021/06/06 08:25:20;;;;;;;55.63;33.15;;;16.50;99.90;;;18.02;84.15;101305.91;4959412;29;20450;-82
2021/06/06 08:27:47;;;;;;;53.95;33.72;;;16.50;99.90;;;17.96;83.91;101313.13;4960030;28;20089;-83
2021/06/06 08:30:40;;;;;;;55.40;34.97;;;16.40;99.90;;;17.91;83.12;101319.16;4947687;29;20031;-83
2021/06/06 08:33:08;;;;;;;56.40;33.70;;;16.40;99.90;;;17.82;84.47;101319.47;4941072;29;20059;-83
2021/06/06 08:35:35;;;;;;;55.70;33.50;;;16.40;99.90;;;17.77;84.20;101322.69;4944058;29;20119;-84
2021/06/06 08:38:03;;;;;;;50.10;32.85;;;16.30;99.90;;;17.75;84.86;101318.63;4947999;29;20403;-79
2021/06/06 08:40:59;;;;;;;54.63;32.65;;;16.30;99.90;;;17.72;84.38;101319.41;4947727;29;20050;-80
2021/06/06 08:43:58;;;;;;;54.20;32.17;;;16.30;99.90;;;17.69;84.69;101312.50;4949139;29;20035;-81
2021/06/06 08:46:30;;;;;;;50.88;30.85;;;16.20;99.90;;;17.62;84.71;101315.28;4936867;29;20408;-83
2021/06/06 08:48:56;;;;;;;52.63;32.72;;;16.20;99.90;;;17.61;85.19;101322.13;4946993;29;20046;-83
2021/06/06 08:51:37;;;;;;;51.55;30.85;;;16.20;99.90;;;17.66;84.45;101320.97;4949502;29;20040;-80
2021/06/06 08:54:15;;;;;;;51.70;31.17;;;16.20;99.90;;;17.76;84.48;101323.06;4947539;29;20091;-82
2021/06/06 08:56:43;;;;;;;50.35;31.92;;;16.30;99.90;;;17.80;85.01;101323.91;4942358;29;20377;-81
2021/06/06 08:59:28;;;;;;;55.15;34.75;;;16.30;99.90;;;17.85;84.47;101323.56;4940044;29;20047;-81
2021/06/06 09:02:32;;;;;;;49.38;30.10;;;16.40;99.90;;;17.86;85.10;101328.00;4942479;29;20031;-84
2021/06/06 09:04:58;;;;;;;45.72;27.85;;;16.40;99.90;;;17.92;85.40;101326.41;4943486;29;20399;-80
2021/06/06 09:07:40;;;;;;;45.03;30.00;;;16.40;99.90;;;17.87;84.75;101330.44;4942434;29;20032;-81
2021/06/06 09:10:23;;;;;;;47.72;31.08;;;16.40;99.90;;;17.76;84.86;101326.69;4951692;29;20036;-84
2021/06/06 09:12:49;;;;;;;49.55;30.55;;;16.40;99.90;;;17.83;84.52;101323.13;4960910;28;20027;-83
2021/06/06 09:15:20;;;;;;;51.08;30.45;;;16.30;99.90;;;17.82;84.74;101330.78;4959108;28;20027;-84
2021/06/06 09:17:56;;;;;;;46.95;30.25;;;16.40;99.90;;;17.83;85.10;101334.44;4942623;29;20036;-82
2021/06/06 09:20:41;;;;;;;46.50;31.75;;;16.30;99.90;;;17.86;85.25;101333.63;4946201;28;20059;-80
2021/06/06 09:23:31;;;;;;;48.85;30.73;;;16.40;99.90;;;17.74;84.71;101342.44;4958613;28;20027;-82
2021/06/06 09:26:17;;;;;;;50.78;33.25;;;16.30;99.90;;;17.73;85.27;101344.44;4953767;28;20030;-80
2021/06/06 09:29:09;;;;;;;59.45;34.85;;;16.30;99.90;;;17.79;85.07;101344.88;4965379;28;20091;-81
2021/06/06 09:31:37;;;;;;;48.20;30.80;;;16.30;99.90;;;17.80;85.30;101344.50;4965545;28;20023;-81
2021/06/06 09:34:09;;;;;;;59.03;34.85;;;16.30;99.90;;;17.88;85.01;101353.88;4966299;28;20083;-83
2021/06/06 09:36:59;;;;;;;52.13;32.33;;;16.40;99.90;;;17.82;84.98;101342.09;4964990;29;20034;-80
2021/06/06 09:39:29;;;;;;;47.67;30.20;;;16.40;99.90;;;17.89;85.17;101346.97;4964756;28;20035;-81
2021/06/06 09:41:59;;;;;;;49.05;31.40;;;16.40;99.90;;;17.95;84.61;101342.59;4960276;29;20050;-81
2021/06/06 09:44:33;;;;;;;52.97;31.27;;;16.40;99.90;;;17.95;84.97;101345.41;4961884;29;20035;-81
2021/06/06 09:47:05;;;;;;;50.03;29.48;;;16.50;99.90;;;17.98;85.12;101346.69;4962234;29;20047;-82
2021/06/06 09:49:47;;;;;;;52.95;33.90;;;16.50;99.90;;;18.03;85.99;101351.94;4964155;28;20466;-83
2021/06/06 09:52:42;;;;;;;57.50;34.47;;;16.50;99.90;;;18.04;85.54;101345.09;4962360;29;20368;-83
2021/06/06 09:55:30;;;;;;;51.72;33.83;;;16.60;99.90;;;18.14;84.57;101344.38;4961558;28;20481;-82
2021/06/06 09:58:11;;;;;;;47.80;32.30;;;16.60;99.90;;;18.19;84.00;101355.31;4958983;29;20066;-83
2021/06/06 10:00:57;;;;;;;51.33;32.30;;;16.60;99.90;;;18.27;83.56;101349.28;4947737;29;20067;-82
2021/06/06 10:03:52;;;;;;;51.90;31.15;;;16.70;99.90;;;18.45;82.80;101346.59;4924843;29;20031;-83
2021/06/06 10:06:42;;;;;;;51.00;31.23;;;16.80;99.90;;;18.48;81.61;101351.47;4946402;29;20114;-82
2021/06/06 10:09:25;;;;;;;46.30;30.88;;;16.90;99.90;;;18.42;81.17;101342.53;4955629;29;20054;-82
2021/06/06 10:12:34;;;;;;;45.63;30.23;;;17.00;99.90;;;18.36;81.76;101344.13;4960360;29;20435;-83
2021/06/06 10:15:43;;;;;;;54.47;33.95;;;16.90;99.90;;;18.49;80.76;101344.59;4960949;29;20031;-82
2021/06/06 10:18:32;;;;;;;48.45;31.90;;;17.00;99.90;;;18.67;79.99;101351.19;4952387;29;20121;-83
2021/06/06 10:21:20;;;;;;;51.72;34.17;;;17.10;99.90;;;18.76;79.83;101357.28;4952185;29;20023;-81
2021/06/06 10:24:06;;;;;;;47.53;32.13;;;17.20;99.90;;;19.03;78.86;101357.00;4961206;29;20019;-83
2021/06/06 10:26:47;;;;;;;51.55;32.15;;;17.40;99.90;;;19.37;77.37;101358.31;4961892;28;20094;-81
2021/06/06 10:29:45;;;;;;;47.67;32.03;;;17.70;99.90;;;19.50;75.82;101359.59;4959092;28;20057;-84
2021/06/06 10:32:37;;;;;;;45.65;30.23;;;17.90;99.90;;;19.73;75.39;101365.72;4942743;29;20027;-83